QLK337D YPAD-YMTG
Flight info
| Callsign | QLK337D |
|---|---|
| Flight time | 0h 44m |
| Altitude | 19000 |
| Route | AD W519 MTG |
| Aircraft | DH8D/M-SDE2E3FGRY/H |
Departure
| Time | 2026-05-05 07:41 |
|---|---|
| Airport | Adelaide International Airport (YPAD) |
Arrival
| Time | 2026-05-05 08:25 |
|---|---|
| Airport | Mount Gambier Airport (YMTG) |
| Time | Latitude | Longitude | Altitude | Speed | Heading |
|---|---|---|---|---|---|
| 2026-05-05 07:15 | -34.94065 | 138.53475 | 40 ft | 0 kts | 84° |
| 2026-05-05 07:33 | -34.94065 | 138.53480 | 40 ft | 1 kts | 70° |
| 2026-05-05 07:34 | -34.94051 | 138.53479 | 40 ft | 3 kts | 325° |
| 2026-05-05 07:34 | -34.94042 | 138.53466 | 40 ft | 2 kts | 289° |
| 2026-05-05 07:34 | -34.94049 | 138.53441 | 40 ft | 3 kts | 230° |
| 2026-05-05 07:34 | -34.94069 | 138.53413 | 40 ft | 4 kts | 227° |
| 2026-05-05 07:35 | -34.94095 | 138.53380 | 40 ft | 5 kts | 224° |
| 2026-05-05 07:35 | -34.94127 | 138.53358 | 40 ft | 5 kts | 167° |
| 2026-05-05 07:35 | -34.94167 | 138.53386 | 39 ft | 7 kts | 139° |
| 2026-05-05 07:35 | -34.94212 | 138.53436 | 39 ft | 9 kts | 136° |
| 2026-05-05 07:36 | -34.94257 | 138.53485 | 38 ft | 6 kts | 135° |
| 2026-05-05 07:36 | -34.94259 | 138.53530 | 37 ft | 5 kts | 54° |
| 2026-05-05 07:36 | -34.94236 | 138.53565 | 37 ft | 5 kts | 50° |
| 2026-05-05 07:36 | -34.94224 | 138.53619 | 38 ft | 7 kts | 105° |
| 2026-05-05 07:37 | -34.94249 | 138.53670 | 38 ft | 7 kts | 115° |
| 2026-05-05 07:37 | -34.94230 | 138.53744 | 38 ft | 8 kts | 48° |
| 2026-05-05 07:37 | -34.94201 | 138.53787 | 39 ft | 4 kts | 50° |
| 2026-05-05 07:37 | -34.94182 | 138.53814 | 39 ft | 4 kts | 50° |
| 2026-05-05 07:38 | -34.94158 | 138.53849 | 40 ft | 7 kts | 46° |
| 2026-05-05 07:38 | -34.94113 | 138.53912 | 40 ft | 10 kts | 53° |
| 2026-05-05 07:38 | -34.94054 | 138.54002 | 40 ft | 14 kts | 50° |
| 2026-05-05 07:38 | -34.93992 | 138.54092 | 40 ft | 13 kts | 49° |
| 2026-05-05 07:39 | -34.93953 | 138.54170 | 41 ft | 7 kts | 85° |
| 2026-05-05 07:39 | -34.93971 | 138.54215 | 42 ft | 5 kts | 137° |
| 2026-05-05 07:39 | -34.93992 | 138.54235 | 41 ft | 3 kts | 140° |
| 2026-05-05 07:39 | -34.93996 | 138.54240 | 41 ft | 0 kts | 140° |
| 2026-05-05 07:40 | -34.94019 | 138.54263 | 41 ft | 8 kts | 140° |
| 2026-05-05 07:40 | -34.94069 | 138.54291 | 41 ft | 7 kts | 195° |
| 2026-05-05 07:40 | -34.94111 | 138.54255 | 41 ft | 10 kts | 228° |
| 2026-05-05 07:40 | -34.94332 | 138.53929 | 37 ft | 94 kts | 230° |
| 2026-05-05 07:41 | -34.94922 | 138.53066 | 47 ft | 156 kts | 231° |
| 2026-05-05 07:41 | -34.95628 | 138.51992 | 497 ft | 166 kts | 232° |
| 2026-05-05 07:41 | -34.96373 | 138.50878 | 1075 ft | 177 kts | 220° |
| 2026-05-05 07:41 | -34.97496 | 138.50234 | 1720 ft | 180 kts | 191° |
| 2026-05-05 07:42 | -34.98752 | 138.50374 | 2367 ft | 185 kts | 165° |
| 2026-05-05 07:42 | -35.00007 | 138.50874 | 2997 ft | 193 kts | 162° |
| 2026-05-05 07:42 | -35.01293 | 138.51527 | 3620 ft | 199 kts | 159° |
| 2026-05-05 07:42 | -35.02689 | 138.52204 | 4103 ft | 215 kts | 159° |
| 2026-05-05 07:43 | -35.04218 | 138.52899 | 4683 ft | 224 kts | 160° |
| 2026-05-05 07:43 | -35.05533 | 138.54022 | 5294 ft | 228 kts | 133° |
| 2026-05-05 07:43 | -35.06636 | 138.55597 | 5934 ft | 231 kts | 131° |
| 2026-05-05 07:43 | -35.07751 | 138.57145 | 6567 ft | 235 kts | 133° |
| 2026-05-05 07:44 | -35.08873 | 138.58666 | 7214 ft | 236 kts | 133° |
| 2026-05-05 07:44 | -35.10008 | 138.60173 | 7831 ft | 239 kts | 134° |
| 2026-05-05 07:44 | -35.11171 | 138.61693 | 8445 ft | 241 kts | 134° |
| 2026-05-05 07:44 | -35.12329 | 138.63188 | 9049 ft | 244 kts | 134° |
| 2026-05-05 07:45 | -35.13509 | 138.64699 | 9656 ft | 246 kts | 135° |
| 2026-05-05 07:45 | -35.14703 | 138.66220 | 10246 ft | 249 kts | 135° |
| 2026-05-05 07:45 | -35.15917 | 138.67760 | 10849 ft | 251 kts | 135° |
| 2026-05-05 07:45 | -35.17138 | 138.69304 | 11429 ft | 252 kts | 135° |
| 2026-05-05 07:46 | -35.18368 | 138.70857 | 11981 ft | 255 kts | 135° |
| 2026-05-05 07:46 | -35.19619 | 138.72435 | 12507 ft | 257 kts | 135° |
| 2026-05-05 07:46 | -35.20887 | 138.74032 | 13033 ft | 259 kts | 135° |
| 2026-05-05 07:46 | -35.22149 | 138.75621 | 13507 ft | 261 kts | 135° |
| 2026-05-05 07:47 | -35.23434 | 138.77238 | 13973 ft | 263 kts | 135° |
| 2026-05-05 07:47 | -35.24733 | 138.78873 | 14447 ft | 265 kts | 135° |
| 2026-05-05 07:47 | -35.26032 | 138.80509 | 14904 ft | 267 kts | 134° |
| 2026-05-05 07:47 | -35.27343 | 138.82159 | 15374 ft | 267 kts | 134° |
| 2026-05-05 07:48 | -35.28648 | 138.83803 | 15829 ft | 268 kts | 134° |
| 2026-05-05 07:48 | -35.29951 | 138.85445 | 16278 ft | 268 kts | 134° |
| 2026-05-05 07:48 | -35.31288 | 138.87130 | 16724 ft | 268 kts | 134° |
| 2026-05-05 07:48 | -35.32604 | 138.88789 | 17152 ft | 268 kts | 134° |
| 2026-05-05 07:49 | -35.33924 | 138.90454 | 17569 ft | 268 kts | 134° |
| 2026-05-05 07:49 | -35.35264 | 138.92144 | 17979 ft | 268 kts | 133° |
| 2026-05-05 07:49 | -35.36617 | 138.93853 | 18382 ft | 267 kts | 133° |
| 2026-05-05 07:49 | -35.37992 | 138.95589 | 18778 ft | 266 kts | 133° |
| 2026-05-05 07:50 | -35.39352 | 138.97307 | 19105 ft | 269 kts | 133° |
| 2026-05-05 07:50 | -35.40743 | 138.99066 | 19207 ft | 279 kts | 133° |
| 2026-05-05 07:50 | -35.42190 | 139.00897 | 19238 ft | 291 kts | 133° |
| 2026-05-05 07:50 | -35.43727 | 139.02843 | 19243 ft | 304 kts | 133° |
| 2026-05-05 07:51 | -35.45323 | 139.04866 | 19244 ft | 315 kts | 133° |
| 2026-05-05 07:51 | -35.46971 | 139.06955 | 19244 ft | 324 kts | 133° |
| 2026-05-05 07:51 | -35.48639 | 139.09069 | 19243 ft | 332 kts | 133° |
| 2026-05-05 07:51 | -35.50292 | 139.11168 | 19242 ft | 339 kts | 133° |
| 2026-05-05 07:52 | -35.52041 | 139.13388 | 19243 ft | 344 kts | 133° |
| 2026-05-05 07:52 | -35.53756 | 139.15567 | 19242 ft | 348 kts | 133° |
| 2026-05-05 07:52 | -35.55448 | 139.17718 | 19239 ft | 351 kts | 133° |
| 2026-05-05 07:52 | -35.57197 | 139.19942 | 19236 ft | 352 kts | 133° |
| 2026-05-05 07:53 | -35.58981 | 139.22212 | 19235 ft | 353 kts | 133° |
| 2026-05-05 07:53 | -35.60782 | 139.24506 | 19235 ft | 352 kts | 133° |
| 2026-05-05 07:53 | -35.62536 | 139.26741 | 19233 ft | 353 kts | 133° |
| 2026-05-05 07:53 | -35.64253 | 139.28931 | 19235 ft | 354 kts | 133° |
| 2026-05-05 07:54 | -35.65973 | 139.31125 | 19237 ft | 356 kts | 133° |
| 2026-05-05 07:54 | -35.67701 | 139.33331 | 19237 ft | 356 kts | 133° |
| 2026-05-05 07:54 | -35.69592 | 139.35319 | 19221 ft | 358 kts | 146° |
| 2026-05-05 07:54 | -35.71779 | 139.36844 | 19226 ft | 358 kts | 151° |
| 2026-05-05 07:55 | -35.73986 | 139.38322 | 19233 ft | 358 kts | 151° |
| 2026-05-05 07:55 | -35.76195 | 139.39799 | 19237 ft | 358 kts | 151° |
| 2026-05-05 07:55 | -35.78424 | 139.41295 | 19236 ft | 358 kts | 151° |
| 2026-05-05 07:55 | -35.80677 | 139.42812 | 19236 ft | 358 kts | 151° |
| 2026-05-05 07:56 | -35.82933 | 139.44334 | 19235 ft | 357 kts | 151° |
| 2026-05-05 07:56 | -35.85203 | 139.45868 | 19236 ft | 357 kts | 151° |
| 2026-05-05 07:56 | -35.87444 | 139.47385 | 19234 ft | 357 kts | 150° |
| 2026-05-05 07:56 | -35.89628 | 139.48866 | 19236 ft | 358 kts | 150° |
| 2026-05-05 07:57 | -35.91810 | 139.50347 | 19236 ft | 359 kts | 151° |
| 2026-05-05 07:57 | -35.94014 | 139.51844 | 19238 ft | 359 kts | 151° |
| 2026-05-05 07:57 | -35.96293 | 139.53394 | 19235 ft | 359 kts | 151° |
| 2026-05-05 07:57 | -35.98621 | 139.54979 | 19234 ft | 357 kts | 151° |
| 2026-05-05 07:58 | -36.00928 | 139.56551 | 19233 ft | 356 kts | 151° |
| 2026-05-05 07:58 | -36.03137 | 139.58057 | 19233 ft | 357 kts | 151° |
| 2026-05-05 07:58 | -36.05317 | 139.59544 | 19237 ft | 358 kts | 151° |
| 2026-05-05 07:58 | -36.07501 | 139.61034 | 19236 ft | 358 kts | 151° |
| 2026-05-05 07:59 | -36.09693 | 139.62532 | 19232 ft | 359 kts | 151° |
| 2026-05-05 07:59 | -36.11927 | 139.64060 | 19232 ft | 358 kts | 151° |
| 2026-05-05 07:59 | -36.14225 | 139.65632 | 19231 ft | 357 kts | 150° |
| 2026-05-05 07:59 | -36.16495 | 139.67186 | 19231 ft | 357 kts | 150° |
| 2026-05-05 08:00 | -36.18715 | 139.68708 | 19229 ft | 357 kts | 150° |
| 2026-05-05 08:00 | -36.20942 | 139.70246 | 19240 ft | 358 kts | 151° |
| 2026-05-05 08:00 | -36.23248 | 139.71809 | 19236 ft | 357 kts | 150° |
| 2026-05-05 08:00 | -36.25548 | 139.73390 | 19233 ft | 355 kts | 150° |
| 2026-05-05 08:01 | -36.27839 | 139.74965 | 19235 ft | 356 kts | 150° |
| 2026-05-05 08:01 | -36.30089 | 139.76513 | 19233 ft | 357 kts | 150° |
| 2026-05-05 08:01 | -36.32297 | 139.78032 | 19231 ft | 358 kts | 150° |
| 2026-05-05 08:01 | -36.34513 | 139.79559 | 19229 ft | 358 kts | 150° |
| 2026-05-05 08:02 | -36.36743 | 139.81095 | 19229 ft | 358 kts | 150° |
| 2026-05-05 08:02 | -36.38971 | 139.82631 | 19228 ft | 359 kts | 150° |
| 2026-05-05 08:02 | -36.41197 | 139.84166 | 19229 ft | 359 kts | 150° |
| 2026-05-05 08:02 | -36.43409 | 139.85693 | 19229 ft | 360 kts | 150° |
| 2026-05-05 08:03 | -36.45616 | 139.87218 | 19230 ft | 360 kts | 150° |
| 2026-05-05 08:03 | -36.47833 | 139.88749 | 19229 ft | 360 kts | 151° |
| 2026-05-05 08:03 | -36.50059 | 139.90288 | 19225 ft | 360 kts | 151° |
| 2026-05-05 08:03 | -36.52330 | 139.91861 | 19226 ft | 359 kts | 151° |
| 2026-05-05 08:04 | -36.54571 | 139.93412 | 19226 ft | 359 kts | 151° |
| 2026-05-05 08:04 | -36.56799 | 139.94957 | 19225 ft | 359 kts | 151° |
| 2026-05-05 08:04 | -36.59034 | 139.96506 | 19222 ft | 359 kts | 151° |
| 2026-05-05 08:04 | -36.61270 | 139.98056 | 19220 ft | 359 kts | 151° |
| 2026-05-05 08:05 | -36.63511 | 139.99612 | 19224 ft | 359 kts | 151° |
| 2026-05-05 08:05 | -36.65761 | 140.01175 | 19222 ft | 358 kts | 151° |
| 2026-05-05 08:05 | -36.67984 | 140.02722 | 19223 ft | 358 kts | 151° |
| 2026-05-05 08:05 | -36.70215 | 140.04275 | 19223 ft | 358 kts | 151° |
| 2026-05-05 08:06 | -36.72453 | 140.05833 | 19223 ft | 358 kts | 151° |
| 2026-05-05 08:06 | -36.74680 | 140.07385 | 19222 ft | 358 kts | 151° |
| 2026-05-05 08:06 | -36.76912 | 140.08941 | 19220 ft | 358 kts | 151° |
| 2026-05-05 08:06 | -36.79123 | 140.10484 | 19222 ft | 358 kts | 151° |
| 2026-05-05 08:07 | -36.81302 | 140.12007 | 19222 ft | 359 kts | 151° |
| 2026-05-05 08:07 | -36.83481 | 140.13529 | 19219 ft | 360 kts | 151° |
| 2026-05-05 08:07 | -36.85669 | 140.15054 | 19218 ft | 361 kts | 151° |
| 2026-05-05 08:07 | -36.87924 | 140.16435 | 19212 ft | 360 kts | 158° |
| 2026-05-05 08:08 | -36.90278 | 140.17536 | 19213 ft | 361 kts | 160° |
| 2026-05-05 08:08 | -36.92645 | 140.18617 | 19218 ft | 361 kts | 160° |
| 2026-05-05 08:08 | -36.95005 | 140.19697 | 19217 ft | 361 kts | 160° |
| 2026-05-05 08:08 | -36.97383 | 140.20794 | 19212 ft | 361 kts | 160° |
| 2026-05-05 08:09 | -36.99748 | 140.21881 | 19214 ft | 361 kts | 160° |
| 2026-05-05 08:09 | -37.02108 | 140.22968 | 19212 ft | 361 kts | 160° |
| 2026-05-05 08:09 | -37.04467 | 140.24058 | 19210 ft | 361 kts | 160° |
| 2026-05-05 08:09 | -37.06837 | 140.25154 | 19209 ft | 361 kts | 160° |
| 2026-05-05 08:10 | -37.09210 | 140.26253 | 19210 ft | 361 kts | 160° |
| 2026-05-05 08:10 | -37.11597 | 140.27361 | 19205 ft | 361 kts | 160° |
| 2026-05-05 08:10 | -37.13953 | 140.28455 | 19206 ft | 361 kts | 160° |
| 2026-05-05 08:10 | -37.16306 | 140.29549 | 19206 ft | 361 kts | 160° |
| 2026-05-05 08:11 | -37.18685 | 140.30656 | 19201 ft | 361 kts | 161° |
| 2026-05-05 08:11 | -37.21085 | 140.31774 | 19206 ft | 361 kts | 160° |
| 2026-05-05 08:11 | -37.23479 | 140.32891 | 19208 ft | 361 kts | 160° |
| 2026-05-05 08:11 | -37.25872 | 140.34007 | 19202 ft | 361 kts | 161° |
| 2026-05-05 08:12 | -37.28242 | 140.35114 | 19202 ft | 361 kts | 161° |
| 2026-05-05 08:12 | -37.30642 | 140.36235 | 19130 ft | 360 kts | 161° |
| 2026-05-05 08:12 | -37.33045 | 140.37357 | 18723 ft | 362 kts | 161° |
| 2026-05-05 08:12 | -37.35456 | 140.38483 | 18224 ft | 366 kts | 161° |
| 2026-05-05 08:13 | -37.37854 | 140.39608 | 17702 ft | 367 kts | 161° |
| 2026-05-05 08:13 | -37.40235 | 140.40727 | 17183 ft | 364 kts | 161° |
| 2026-05-05 08:13 | -37.42592 | 140.41838 | 16608 ft | 359 kts | 161° |
| 2026-05-05 08:13 | -37.44944 | 140.42945 | 15957 ft | 357 kts | 161° |
| 2026-05-05 08:14 | -37.47272 | 140.44042 | 15397 ft | 353 kts | 161° |
| 2026-05-05 08:14 | -37.49621 | 140.45149 | 14874 ft | 345 kts | 161° |
| 2026-05-05 08:14 | -37.51888 | 140.46219 | 14379 ft | 340 kts | 162° |
| 2026-05-05 08:14 | -37.54121 | 140.47271 | 13898 ft | 337 kts | 162° |
| 2026-05-05 08:15 | -37.56333 | 140.48312 | 13421 ft | 336 kts | 162° |
| 2026-05-05 08:15 | -37.58536 | 140.49348 | 12950 ft | 337 kts | 162° |
| 2026-05-05 08:15 | -37.60762 | 140.50395 | 12470 ft | 339 kts | 162° |
| 2026-05-05 08:15 | -37.62998 | 140.51448 | 11980 ft | 338 kts | 162° |
| 2026-05-05 08:16 | -37.65194 | 140.52487 | 11497 ft | 332 kts | 162° |
| 2026-05-05 08:16 | -37.67351 | 140.53508 | 11019 ft | 325 kts | 162° |
| 2026-05-05 08:16 | -37.69498 | 140.54526 | 10547 ft | 316 kts | 162° |
| 2026-05-05 08:16 | -37.71625 | 140.55536 | 10086 ft | 306 kts | 162° |
| 2026-05-05 08:17 | -37.73703 | 140.56522 | 9631 ft | 298 kts | 162° |
| 2026-05-05 08:17 | -37.75685 | 140.57462 | 9199 ft | 293 kts | 162° |
| 2026-05-05 08:17 | -37.77675 | 140.58405 | 8770 ft | 287 kts | 162° |
| 2026-05-05 08:17 | -37.79615 | 140.59328 | 8348 ft | 282 kts | 162° |
| 2026-05-05 08:18 | -37.81443 | 140.60198 | 7949 ft | 279 kts | 162° |
| 2026-05-05 08:18 | -37.83258 | 140.61059 | 7543 ft | 273 kts | 162° |
| 2026-05-05 08:18 | -37.85025 | 140.61901 | 7156 ft | 264 kts | 162° |
| 2026-05-05 08:18 | -37.86731 | 140.62714 | 6787 ft | 256 kts | 162° |
| 2026-05-05 08:19 | -37.88384 | 140.63501 | 6426 ft | 249 kts | 163° |
| 2026-05-05 08:19 | -37.90017 | 140.64279 | 6067 ft | 241 kts | 163° |
| 2026-05-05 08:19 | -37.91568 | 140.65019 | 5728 ft | 234 kts | 162° |
| 2026-05-05 08:19 | -37.93039 | 140.65905 | 5184 ft | 239 kts | 143° |
| 2026-05-05 08:20 | -37.93876 | 140.67652 | 4827 ft | 231 kts | 101° |
| 2026-05-05 08:20 | -37.93765 | 140.69619 | 4546 ft | 220 kts | 77° |
| 2026-05-05 08:20 | -37.93425 | 140.71482 | 4244 ft | 213 kts | 76° |
| 2026-05-05 08:20 | -37.93079 | 140.73279 | 3971 ft | 208 kts | 75° |
| 2026-05-05 08:21 | -37.92711 | 140.75053 | 3620 ft | 211 kts | 70° |
| 2026-05-05 08:21 | -37.91833 | 140.76430 | 3276 ft | 197 kts | 24° |
| 2026-05-05 08:21 | -37.90565 | 140.76823 | 3031 ft | 179 kts | 3° |
| 2026-05-05 08:21 | -37.89397 | 140.76992 | 2777 ft | 156 kts | 2° |
| 2026-05-05 08:22 | -37.88333 | 140.77144 | 2602 ft | 153 kts | 2° |
| 2026-05-05 08:22 | -37.87279 | 140.77288 | 2428 ft | 151 kts | 2° |
| 2026-05-05 08:22 | -37.86232 | 140.77426 | 2258 ft | 151 kts | 1° |
| 2026-05-05 08:22 | -37.85184 | 140.77620 | 2108 ft | 150 kts | 8° |
| 2026-05-05 08:23 | -37.84134 | 140.77862 | 1905 ft | 155 kts | 4° |
| 2026-05-05 08:23 | -37.83057 | 140.78063 | 1756 ft | 153 kts | 4° |
| 2026-05-05 08:23 | -37.82027 | 140.78173 | 1586 ft | 145 kts | 359° |
| 2026-05-05 08:23 | -37.81030 | 140.78200 | 1308 ft | 142 kts | 357° |
| 2026-05-05 08:24 | -37.80038 | 140.78232 | 1095 ft | 141 kts | 359° |
| 2026-05-05 08:24 | -37.79061 | 140.78318 | 868 ft | 140 kts | 3° |
| 2026-05-05 08:24 | -37.78092 | 140.78446 | 693 ft | 138 kts | 4° |
| 2026-05-05 08:24 | -37.77149 | 140.78582 | 549 ft | 135 kts | 5° |
| 2026-05-05 08:25 | -37.76209 | 140.78703 | 347 ft | 135 kts | 2° |
| 2026-05-05 08:25 | -37.75282 | 140.78815 | 216 ft | 131 kts | 4° |
| 2026-05-05 08:25 | -37.74476 | 140.78913 | 217 ft | 93 kts | 7° |
| 2026-05-05 08:25 | -37.74154 | 140.78954 | 220 ft | 20 kts | 4° |
| 2026-05-05 08:26 | -37.74074 | 140.78962 | 222 ft | 7 kts | 0° |
| 2026-05-05 08:26 | -37.74050 | 140.78933 | 222 ft | 3 kts | 265° |
| 2026-05-05 08:26 | -37.74057 | 140.78911 | 222 ft | 3 kts | 233° |
| 2026-05-05 08:26 | -37.74096 | 140.78868 | 222 ft | 8 kts | 218° |
| 2026-05-05 08:27 | -37.74145 | 140.78823 | 221 ft | 8 kts | 217° |
| 2026-05-05 08:27 | -37.74194 | 140.78775 | 220 ft | 8 kts | 217° |
| 2026-05-05 08:27 | -37.74240 | 140.78731 | 220 ft | 8 kts | 217° |
| 2026-05-05 08:27 | -37.74261 | 140.78712 | 220 ft | 0 kts | 216° |
| 2026-05-05 08:28 | -37.74270 | 140.78703 | 220 ft | 2 kts | 217° |
| 2026-05-05 08:28 | -37.74289 | 140.78685 | 220 ft | 4 kts | 217° |
| 2026-05-05 08:28 | -37.74328 | 140.78647 | 220 ft | 9 kts | 218° |
| 2026-05-05 08:28 | -37.74379 | 140.78591 | 219 ft | 10 kts | 221° |
| 2026-05-05 08:29 | -37.74431 | 140.78530 | 218 ft | 10 kts | 223° |
| 2026-05-05 08:29 | -37.74482 | 140.78464 | 217 ft | 10 kts | 230° |
| 2026-05-05 08:29 | -37.74486 | 140.78412 | 217 ft | 4 kts | 301° |
| 2026-05-05 08:30 | -37.74483 | 140.78365 | 217 ft | 0 kts | 308° |
| 2026-05-05 08:30 | -37.74483 | 140.78355 | 217 ft | 2 kts | 236° |
| 2026-05-05 08:30 | -37.74518 | 140.78344 | 217 ft | 7 kts | 163° |
| 2026-05-05 08:30 | -37.74530 | 140.78398 | 216 ft | 7 kts | 59° |
| 2026-05-05 08:31 | -37.74492 | 140.78425 | 217 ft | 5 kts | 356° |
| 2026-05-05 08:31 | -37.74462 | 140.78417 | 218 ft | 3 kts | 333° |
| 2026-05-05 08:31 | -37.74449 | 140.78407 | 218 ft | 1 kts | 326° |
| 2026-05-05 08:31 | -37.74446 | 140.78404 | 218 ft | 0 kts | 323° |